Bishop Sutton, United Kingdom
Current Conditions -  °F | °C
As of 1:50 PM on Monday 20 Oct 2014 (Local Time) from EGGD Reporting Station
Rain Showers Rain Showers  
Wind Chill: 12°   Ceiling: 4000
Heat Index: 12°   Visibility: 6mi
Dew Point: 11°   Wind: 12mph
Humidity: 94%   Direction: 240°WSW
Pressure: 30"   Gusts: NA
Location:  51.37°N, 2.55°W
Report Text: EGGD 201250Z 24010KT 9999 VCSH SCT012 BKN040 12/11 Q1016
Loading
Personal Weather Stations






























Interactive Weather Map
Tropical Storm Tracking
New forecast layout! Learn more

10-Day Weather Forecast

Advertisements
Track Severe Weather on mobile